sensor_id;sensor_type;location;lat;lon;timestamp;pressure;altitude;pressure_sealevel;temperature;humidity
23363;BME280;11853;48.080;11.960;2024-01-11T00:00:15;95533.06;;;-2.00;86.36
23363;BME280;11853;48.080;11.960;2024-01-11T00:02:40;95536.25;;;-1.93;85.50
23363;BME280;11853;48.080;11.960;2024-01-11T00:05:06;95541.59;;;-1.96;85.40
23363;BME280;11853;48.080;11.960;2024-01-11T00:07:32;95545.88;;;-1.95;85.40
23363;BME280;11853;48.080;11.960;2024-01-11T00:09:58;95544.44;;;-2.02;85.74
23363;BME280;11853;48.080;11.960;2024-01-11T00:12:23;95552.81;;;-1.96;86.05
23363;BME280;11853;48.080;11.960;2024-01-11T00:14:49;95550.19;;;-1.94;85.14
23363;BME280;11853;48.080;11.960;2024-01-11T00:17:15;95551.06;;;-1.95;85.41
23363;BME280;11853;48.080;11.960;2024-01-11T00:19:41;95547.75;;;-1.99;85.03
23363;BME280;11853;48.080;11.960;2024-01-11T00:22:06;95552.78;;;-1.94;85.17
23363;BME280;11853;48.080;11.960;2024-01-11T00:24:32;95550.22;;;-1.96;85.21
23363;BME280;11853;48.080;11.960;2024-01-11T00:26:58;95547.47;;;-1.91;85.00
23363;BME280;11853;48.080;11.960;2024-01-11T00:29:23;95556.22;;;-1.94;84.17
23363;BME280;11853;48.080;11.960;2024-01-11T00:31:49;95550.09;;;-1.93;84.54
23363;BME280;11853;48.080;11.960;2024-01-11T00:34:15;95556.38;;;-1.98;84.86
23363;BME280;11853;48.080;11.960;2024-01-11T00:36:40;95553.53;;;-1.92;84.44
23363;BME280;11853;48.080;11.960;2024-01-11T00:39:06;95553.53;;;-1.92;84.33
23363;BME280;11853;48.080;11.960;2024-01-11T00:41:31;95559.66;;;-1.93;83.41
23363;BME280;11853;48.080;11.960;2024-01-11T00:43:57;95548.59;;;-1.98;83.48
23363;BME280;11853;48.080;11.960;2024-01-11T00:46:23;95548.47;;;-1.95;83.65
23363;BME280;11853;48.080;11.960;2024-01-11T00:48:49;95551.19;;;-1.98;83.32
23363;BME280;11853;48.080;11.960;2024-01-11T00:51:15;95557.09;;;-1.95;82.99
23363;BME280;11853;48.080;11.960;2024-01-11T00:53:41;95542.50;;;-1.97;83.33
23363;BME280;11853;48.080;11.960;2024-01-11T00:56:15;95549.44;;;-1.98;83.07
23363;BME280;11853;48.080;11.960;2024-01-11T00:58:41;95546.00;;;-1.98;82.71
23363;BME280;11853;48.080;11.960;2024-01-11T01:01:09;95549.50;;;-1.99;82.81
23363;BME280;11853;48.080;11.960;2024-01-11T01:03:35;95552.03;;;-1.98;82.83
23363;BME280;11853;48.080;11.960;2024-01-11T01:06:01;95557.34;;;-2.01;82.58
23363;BME280;11853;48.080;11.960;2024-01-11T01:08:27;95558.88;;;-1.95;82.10
23363;BME280;11853;48.080;11.960;2024-01-11T01:10:52;95560.75;;;-1.99;81.64
23363;BME280;11853;48.080;11.960;2024-01-11T01:13:18;95558.97;;;-1.98;81.71
23363;BME280;11853;48.080;11.960;2024-01-11T01:15:44;95560.78;;;-2.00;81.92
23363;BME280;11853;48.080;11.960;2024-01-11T01:18:10;95570.22;;;-1.98;81.75
23363;BME280;11853;48.080;11.960;2024-01-11T01:20:35;95563.34;;;-1.99;81.83
23363;BME280;11853;48.080;11.960;2024-01-11T01:23:01;95565.09;;;-1.99;81.81
23363;BME280;11853;48.080;11.960;2024-01-11T01:25:27;95562.53;;;-2.01;81.79
23363;BME280;11853;48.080;11.960;2024-01-11T01:27:53;95558.25;;;-2.02;81.83
23363;BME280;11853;48.080;11.960;2024-01-11T01:30:19;95565.09;;;-1.99;82.29
23363;BME280;11853;48.080;11.960;2024-01-11T01:32:45;95565.25;;;-2.04;82.07
23363;BME280;11853;48.080;11.960;2024-01-11T01:35:11;95568.69;;;-2.04;82.48
23363;BME280;11853;48.080;11.960;2024-01-11T01:37:36;95577.31;;;-2.01;82.87
23363;BME280;11853;48.080;11.960;2024-01-11T01:40:02;95575.53;;;-2.01;83.25
23363;BME280;11853;48.080;11.960;2024-01-11T01:42:28;95572.91;;;-1.99;83.57
23363;BME280;11853;48.080;11.960;2024-01-11T01:44:54;95576.63;;;-2.07;84.12
23363;BME280;11853;48.080;11.960;2024-01-11T01:47:21;95579.22;;;-2.07;83.51
23363;BME280;11853;48.080;11.960;2024-01-11T01:49:48;95581.69;;;-2.04;83.95
23363;BME280;11853;48.080;11.960;2024-01-11T01:52:14;95580.94;;;-2.06;84.20
23363;BME280;11853;48.080;11.960;2024-01-11T01:54:41;95583.53;;;-2.06;84.13
23363;BME280;11853;48.080;11.960;2024-01-11T01:57:09;95588.72;;;-2.06;84.08
23363;BME280;11853;48.080;11.960;2024-01-11T01:59:36;95594.66;;;-2.02;83.77
23363;BME280;11853;48.080;11.960;2024-01-11T02:02:04;95591.94;;;-1.99;83.21
23363;BME280;11853;48.080;11.960;2024-01-11T02:04:31;95583.56;;;-2.07;83.56
23363;BME280;11853;48.080;11.960;2024-01-11T02:06:57;95593.25;;;-2.11;83.84
23363;BME280;11853;48.080;11.960;2024-01-11T02:09:24;95588.06;;;-2.11;84.23
23363;BME280;11853;48.080;11.960;2024-01-11T02:11:52;95588.78;;;-2.07;84.09
23363;BME280;11853;48.080;11.960;2024-01-11T02:14:19;95579.47;;;-2.13;84.30
23363;BME280;11853;48.080;11.960;2024-01-11T02:16:45;95590.47;;;-2.06;83.76
23363;BME280;11853;48.080;11.960;2024-01-11T02:19:14;95588.72;;;-2.06;84.37
23363;BME280;11853;48.080;11.960;2024-01-11T02:21:43;95586.25;;;-2.09;84.14
23363;BME280;11853;48.080;11.960;2024-01-11T02:24:09;95583.41;;;-2.02;83.63
23363;BME280;11853;48.080;11.960;2024-01-11T02:26:35;95582.50;;;-2.01;84.03
23363;BME280;11853;48.080;11.960;2024-01-11T02:29:01;95582.63;;;-2.05;84.31
23363;BME280;11853;48.080;11.960;2024-01-11T02:31:27;95579.06;;;-2.02;84.31
23363;BME280;11853;48.080;11.960;2024-01-11T02:33:54;95584.19;;;-2.00;84.00
23363;BME280;11853;48.080;11.960;2024-01-11T02:36:20;95574.56;;;-1.98;84.00
23363;BME280;11853;48.080;11.960;2024-01-11T02:38:46;95568.69;;;-2.04;84.88
23363;BME280;11853;48.080;11.960;2024-01-11T02:41:15;95574.88;;;-2.06;85.30
23363;BME280;11853;48.080;11.960;2024-01-11T02:43:48;95573.03;;;-2.02;85.82
23363;BME280;11853;48.080;11.960;2024-01-11T02:46:17;95570.28;;;-1.99;85.58
23363;BME280;11853;48.080;11.960;2024-01-11T02:48:43;95562.66;;;-2.04;86.02
23363;BME280;11853;48.080;11.960;2024-01-11T02:51:08;95560.88;;;-2.02;85.39
23363;BME280;11853;48.080;11.960;2024-01-11T02:53:34;95565.94;;;-1.99;84.80
23363;BME280;11853;48.080;11.960;2024-01-11T02:56:01;95557.34;;;-2.01;85.31
23363;BME280;11853;48.080;11.960;2024-01-11T02:58:27;95555.50;;;-1.97;85.25
23363;BME280;11853;48.080;11.960;2024-01-11T03:00:52;95558.09;;;-1.97;85.54
23363;BME280;11853;48.080;11.960;2024-01-11T03:03:18;95548.59;;;-1.98;85.51
23363;BME280;11853;48.080;11.960;2024-01-11T03:05:43;95543.25;;;-1.95;85.97
23363;BME280;11853;48.080;11.960;2024-01-11T03:08:09;95541.75;;;-2.01;86.34
23363;BME280;11853;48.080;11.960;2024-01-11T03:10:37;95541.75;;;-2.01;86.09
23363;BME280;11853;48.080;11.960;2024-01-11T03:13:04;95537.41;;;-2.00;86.66
23363;BME280;11853;48.080;11.960;2024-01-11T03:15:30;95534.88;;;-2.02;86.98
23363;BME280;11853;48.080;11.960;2024-01-11T03:17:56;95535.97;;;-2.08;86.66
23363;BME280;11853;48.080;11.960;2024-01-11T03:20:21;95544.47;;;-2.04;87.14
23363;BME280;11853;48.080;11.960;2024-01-11T03:22:50;95542.00;;;-2.07;86.35
23363;BME280;11853;48.080;11.960;2024-01-11T03:25:17;95539.47;;;-2.09;86.58
23363;BME280;11853;48.080;11.960;2024-01-11T03:27:42;95537.72;;;-2.08;86.78
23363;BME280;11853;48.080;11.960;2024-01-11T03:30:08;95530.63;;;-2.05;86.52
23363;BME280;11853;48.080;11.960;2024-01-11T03:32:34;95530.88;;;-2.11;86.43
23363;BME280;11853;48.080;11.960;2024-01-11T03:34:59;95536.91;;;-2.10;85.64
23363;BME280;11853;48.080;11.960;2024-01-11T03:37:25;95541.28;;;-2.11;85.59
23363;BME280;11853;48.080;11.960;2024-01-11T03:39:51;95531.00;;;-2.14;85.14
23363;BME280;11853;48.080;11.960;2024-01-11T03:42:16;95527.72;;;-2.19;84.87
23363;BME280;11853;48.080;11.960;2024-01-11T03:44:42;95522.41;;;-2.16;85.43
23363;BME280;11853;48.080;11.960;2024-01-11T03:47:08;95517.94;;;-2.12;86.15
23363;BME280;11853;48.080;11.960;2024-01-11T03:49:33;95531.00;;;-2.14;85.96
23363;BME280;11853;48.080;11.960;2024-01-11T03:51:59;95524.88;;;-2.13;85.92
23363;BME280;11853;48.080;11.960;2024-01-11T03:54:25;95520.59;;;-2.14;86.72
23363;BME280;11853;48.080;11.960;2024-01-11T03:56:50;95519.41;;;-2.05;86.77
23363;BME280;11853;48.080;11.960;2024-01-11T03:59:16;95511.53;;;-2.04;86.37
23363;BME280;11853;48.080;11.960;2024-01-11T04:01:42;95493.28;;;-2.02;86.40
23363;BME280;11853;48.080;11.960;2024-01-11T04:04:08;95491.41;;;-1.98;86.13
23363;BME280;11853;48.080;11.960;2024-01-11T04:06:34;95490.56;;;-1.99;86.87
23363;BME280;11853;48.080;11.960;2024-01-11T04:08:59;95492.31;;;-1.99;87.14
23363;BME280;11853;48.080;11.960;2024-01-11T04:11:28;95492.13;;;-1.95;87.48
23363;BME280;11853;48.080;11.960;2024-01-11T04:13:54;95499.88;;;-1.93;87.04
23363;BME280;11853;48.080;11.960;2024-01-11T04:16:20;95502.34;;;-1.90;87.09
23363;BME280;11853;48.080;11.960;2024-01-11T04:18:46;95503.06;;;-1.87;87.24
23363;BME280;11853;48.080;11.960;2024-01-11T04:23:47;95508.34;;;-1.88;86.48
23363;BME280;11853;48.080;11.960;2024-01-11T04:26:13;95508.34;;;-1.88;86.38
23363;BME280;11853;48.080;11.960;2024-01-11T04:28:39;95516.91;;;-1.86;87.04
23363;BME280;11853;48.080;11.960;2024-01-11T04:31:04;95517.66;;;-1.83;86.37
23363;BME280;11853;48.080;11.960;2024-01-11T04:33:30;95522.84;;;-1.83;86.07
23363;BME280;11853;48.080;11.960;2024-01-11T04:35:55;95522.78;;;-1.81;86.67
23363;BME280;11853;48.080;11.960;2024-01-11T04:38:21;95521.09;;;-1.82;86.80
23363;BME280;11853;48.080;11.960;2024-01-11T04:40:47;95528.88;;;-1.82;87.07
23363;BME280;11853;48.080;11.960;2024-01-11T04:43:12;95530.66;;;-1.83;87.58
23363;BME280;11853;48.080;11.960;2024-01-11T04:45:38;95533.16;;;-1.81;88.54
23363;BME280;11853;48.080;11.960;2024-01-11T04:48:04;95521.69;;;-1.75;88.12
23363;BME280;11853;48.080;11.960;2024-01-11T04:50:29;95523.47;;;-1.77;89.10
23363;BME280;11853;48.080;11.960;2024-01-11T04:52:55;95518.34;;;-1.79;89.41
23363;BME280;11853;48.080;11.960;2024-01-11T04:55:21;95527.59;;;-1.72;89.17
23363;BME280;11853;48.080;11.960;2024-01-11T04:57:46;95515.38;;;-1.70;89.01
23363;BME280;11853;48.080;11.960;2024-01-11T05:00:12;95526.69;;;-1.71;89.41
23363;BME280;11853;48.080;11.960;2024-01-11T05:02:38;95526.50;;;-1.66;89.17
23363;BME280;11853;48.080;11.960;2024-01-11T05:05:04;95519.44;;;-1.63;89.38
23363;BME280;11853;48.080;11.960;2024-01-11T05:07:29;95524.81;;;-1.67;89.74
23363;BME280;11853;48.080;11.960;2024-01-11T05:09:55;95528.22;;;-1.65;89.27
23363;BME280;11853;48.080;11.960;2024-01-11T05:12:21;95529.09;;;-1.66;88.51
23363;BME280;11853;48.080;11.960;2024-01-11T05:14:46;95524.78;;;-1.66;88.48
23363;BME280;11853;48.080;11.960;2024-01-11T05:17:13;95517.81;;;-1.65;88.61
23363;BME280;11853;48.080;11.960;2024-01-11T05:19:39;95531.66;;;-1.65;89.19
23363;BME280;11853;48.080;11.960;2024-01-11T05:22:05;95532.69;;;-1.69;88.22
23363;BME280;11853;48.080;11.960;2024-01-11T05:24:30;95517.97;;;-1.70;86.74
23363;BME280;11853;48.080;11.960;2024-01-11T05:26:56;95507.44;;;-1.67;86.33
23363;BME280;11853;48.080;11.960;2024-01-11T05:29:22;95504.97;;;-1.70;86.25
23363;BME280;11853;48.080;11.960;2024-01-11T05:31:47;95512.25;;;-1.78;85.75
23363;BME280;11853;48.080;11.960;2024-01-11T05:34:13;95520.72;;;-1.73;85.78
23363;BME280;11853;48.080;11.960;2024-01-11T05:36:39;95517.19;;;-1.72;85.42
23363;BME280;11853;48.080;11.960;2024-01-11T05:39:05;95524.16;;;-1.72;85.00
23363;BME280;11853;48.080;11.960;2024-01-11T05:41:31;95531.09;;;-1.73;84.51
23363;BME280;11853;48.080;11.960;2024-01-11T05:43:56;95535.38;;;-1.72;84.17
23363;BME280;11853;48.080;11.960;2024-01-11T05:46:22;95536.38;;;-1.74;83.69
23363;BME280;11853;48.080;11.960;2024-01-11T05:48:48;95540.91;;;-1.79;83.22
23363;BME280;11853;48.080;11.960;2024-01-11T05:51:13;95538.38;;;-1.81;84.02
23363;BME280;11853;48.080;11.960;2024-01-11T05:53:39;95535.00;;;-1.83;83.52
23363;BME280;11853;48.080;11.960;2024-01-11T05:56:08;95546.97;;;-1.79;83.65
23363;BME280;11853;48.080;11.960;2024-01-11T05:58:35;95546.97;;;-1.79;82.88
23363;BME280;11853;48.080;11.960;2024-01-11T06:01:02;95547.88;;;-1.80;83.24
23363;BME280;11853;48.080;11.960;2024-01-11T06:03:28;95549.81;;;-1.85;83.06
23363;BME280;11853;48.080;11.960;2024-01-11T06:05:55;95551.56;;;-1.86;85.68
23363;BME280;11853;48.080;11.960;2024-01-11T06:08:20;95554.94;;;-1.84;87.33
23363;BME280;11853;48.080;11.960;2024-01-11T06:10:46;95560.88;;;-1.80;87.04
23363;BME280;11853;48.080;11.960;2024-01-11T06:13:12;95563.34;;;-1.77;87.21
23363;BME280;11853;48.080;11.960;2024-01-11T06:15:38;95561.59;;;-1.76;85.98
23363;BME280;11853;48.080;11.960;2024-01-11T06:18:03;95564.13;;;-1.75;85.84
23363;BME280;11853;48.080;11.960;2024-01-11T06:20:30;95570.97;;;-1.72;84.53
23363;BME280;11853;48.080;11.960;2024-01-11T06:22:55;95570.13;;;-1.73;83.65
23363;BME280;11853;48.080;11.960;2024-01-11T06:25:21;95571.75;;;-1.70;83.30
23363;BME280;11853;48.080;11.960;2024-01-11T06:27:47;95585.59;;;-1.70;82.99
23363;BME280;11853;48.080;11.960;2024-01-11T06:30:13;95591.88;;;-1.75;82.92
23363;BME280;11853;48.080;11.960;2024-01-11T06:32:38;95597.03;;;-1.74;82.76
23363;BME280;11853;48.080;11.960;2024-01-11T06:35:04;95596.97;;;-1.72;82.74
23363;BME280;11853;48.080;11.960;2024-01-11T06:37:30;95598.84;;;-1.76;82.40
23363;BME280;11853;48.080;11.960;2024-01-11T06:39:56;95591.97;;;-1.77;81.68
23363;BME280;11853;48.080;11.960;2024-01-11T06:42:22;95600.78;;;-1.81;82.33
23363;BME280;11853;48.080;11.960;2024-01-11T06:44:47;95599.31;;;-1.88;82.32
23363;BME280;11853;48.080;11.960;2024-01-11T06:47:13;95606.22;;;-1.87;81.64
23363;BME280;11853;48.080;11.960;2024-01-11T06:49:40;95600.09;;;-1.86;81.50
23363;BME280;11853;48.080;11.960;2024-01-11T06:52:06;95600.34;;;-1.92;81.14
23363;BME280;11853;48.080;11.960;2024-01-11T06:54:32;95610.59;;;-1.89;80.69
23363;BME280;11853;48.080;11.960;2024-01-11T06:56:58;95609.84;;;-1.91;80.42
23363;BME280;11853;48.080;11.960;2024-01-11T06:59:23;95609.88;;;-1.93;80.71
23363;BME280;11853;48.080;11.960;2024-01-11T07:01:49;95609.09;;;-1.95;80.48
23363;BME280;11853;48.080;11.960;2024-01-11T07:04:15;95610.72;;;-1.92;80.56
23363;BME280;11853;48.080;11.960;2024-01-11T07:06:41;95615.81;;;-1.89;80.64
23363;BME280;11853;48.080;11.960;2024-01-11T07:09:06;95610.09;;;-1.97;79.79
23363;BME280;11853;48.080;11.960;2024-01-11T07:11:32;95617.09;;;-1.99;80.21
23363;BME280;11853;48.080;11.960;2024-01-11T07:13:58;95615.38;;;-2.00;80.46
23363;BME280;11853;48.080;11.960;2024-01-11T07:16:24;95611.75;;;-1.96;80.84
23363;BME280;11853;48.080;11.960;2024-01-11T07:18:49;95609.97;;;-1.94;80.68
23363;BME280;11853;48.080;11.960;2024-01-11T07:21:22;95612.44;;;-1.91;80.41
23363;BME280;11853;48.080;11.960;2024-01-11T07:23:55;95614.81;;;-1.85;82.19
23363;BME280;11853;48.080;11.960;2024-01-11T07:26:22;95622.59;;;-1.63;83.49
23363;BME280;11853;48.080;11.960;2024-01-11T07:28:49;95620.97;;;-1.44;84.35
23363;BME280;11853;48.080;11.960;2024-01-11T07:31:15;95620.38;;;-1.28;83.71
23363;BME280;11853;48.080;11.960;2024-01-11T07:33:40;95623.88;;;-1.29;80.97
23363;BME280;11853;48.080;11.960;2024-01-11T07:36:06;95619.13;;;-1.40;80.59
23363;BME280;11853;48.080;11.960;2024-01-11T07:38:32;95613.41;;;-1.50;79.81
23363;BME280;11853;48.080;11.960;2024-01-11T07:40:58;95620.53;;;-1.55;80.26
23363;BME280;11853;48.080;11.960;2024-01-11T07:43:25;95618.81;;;-1.54;79.93
23363;BME280;11853;48.080;11.960;2024-01-11T07:45:53;95608.00;;;-1.66;80.22
23363;BME280;11853;48.080;11.960;2024-01-11T07:48:18;95613.25;;;-1.67;80.22
23363;BME280;11853;48.080;11.960;2024-01-11T07:50:44;95619.41;;;-1.70;79.83
23363;BME280;11853;48.080;11.960;2024-01-11T07:53:10;95620.31;;;-1.71;80.19
23363;BME280;11853;48.080;11.960;2024-01-11T07:55:36;95628.13;;;-1.71;80.48
23363;BME280;11853;48.080;11.960;2024-01-11T07:58:03;95615.91;;;-1.69;81.19
23363;BME280;11853;48.080;11.960;2024-01-11T08:00:28;95618.28;;;-1.63;81.27
23363;BME280;11853;48.080;11.960;2024-01-11T08:02:54;95623.50;;;-1.64;81.88
23363;BME280;11853;48.080;11.960;2024-01-11T08:05:19;95614.72;;;-1.60;81.65
23363;BME280;11853;48.080;11.960;2024-01-11T08:07:45;95619.00;;;-1.59;81.27
23363;BME280;11853;48.080;11.960;2024-01-11T08:10:11;95607.78;;;-1.61;81.39
23363;BME280;11853;48.080;11.960;2024-01-11T08:12:37;95615.31;;;-1.53;81.85
23363;BME280;11853;48.080;11.960;2024-01-11T08:15:03;95616.97;;;-1.52;81.69
23363;BME280;11853;48.080;11.960;2024-01-11T08:17:29;95622.06;;;-1.49;81.63
23363;BME280;11853;48.080;11.960;2024-01-11T08:19:54;95620.97;;;-1.44;81.69
23363;BME280;11853;48.080;11.960;2024-01-11T08:22:22;95625.22;;;-1.41;81.50
23363;BME280;11853;48.080;11.960;2024-01-11T08:24:48;95631.88;;;-1.34;81.83
23363;BME280;11853;48.080;11.960;2024-01-11T08:27:14;95640.31;;;-1.29;81.62
23363;BME280;11853;48.080;11.960;2024-01-11T08:29:43;95644.44;;;-1.23;82.41
23363;BME280;11853;48.080;11.960;2024-01-11T08:32:09;95620.38;;;-1.28;82.25
23363;BME280;11853;48.080;11.960;2024-01-11T08:34:34;95635.59;;;-1.19;83.11
23363;BME280;11853;48.080;11.960;2024-01-11T08:37:00;95638.34;;;-1.22;83.03
23363;BME280;11853;48.080;11.960;2024-01-11T08:39:26;95633.84;;;-1.19;82.97
23363;BME280;11853;48.080;11.960;2024-01-11T08:41:51;95630.41;;;-1.19;83.55
23363;BME280;11853;48.080;11.960;2024-01-11T08:44:18;95638.94;;;-1.16;83.66
23363;BME280;11853;48.080;11.960;2024-01-11T08:46:43;95648.41;;;-1.15;83.71
23363;BME280;11853;48.080;11.960;2024-01-11T08:49:09;95663.84;;;-1.10;83.56
23363;BME280;11853;48.080;11.960;2024-01-11T08:51:35;95650.97;;;-1.13;83.90
23363;BME280;11853;48.080;11.960;2024-01-11T08:54:01;95663.72;;;-1.07;83.49
23363;BME280;11853;48.080;11.960;2024-01-11T08:56:27;95695.88;;;-1.08;84.46
23363;BME280;11853;48.080;11.960;2024-01-11T08:58:53;95692.44;;;-1.08;84.39
23363;BME280;11853;48.080;11.960;2024-01-11T09:01:19;95683.66;;;-1.06;84.44
23363;BME280;11853;48.080;11.960;2024-01-11T09:03:45;95676.50;;;-1.01;83.86
23363;BME280;11853;48.080;11.960;2024-01-11T09:06:13;95664.41;;;-1.02;83.67
23363;BME280;11853;48.080;11.960;2024-01-11T09:08:39;95681.56;;;-0.98;83.77
23363;BME280;11853;48.080;11.960;2024-01-11T09:11:06;95696.22;;;-0.95;84.10
23363;BME280;11853;48.080;11.960;2024-01-11T09:13:32;95701.31;;;-0.92;83.90
23363;BME280;11853;48.080;11.960;2024-01-11T09:15:58;95703.03;;;-0.91;84.48
23363;BME280;11853;48.080;11.960;2024-01-11T09:18:23;95705.75;;;-0.94;83.91
23363;BME280;11853;48.080;11.960;2024-01-11T09:20:49;95709.25;;;-0.95;82.92
23363;BME280;11853;48.080;11.960;2024-01-11T09:23:16;95690.06;;;-0.93;83.16
23363;BME280;11853;48.080;11.960;2024-01-11T09:25:41;95689.09;;;-0.90;82.53
23363;BME280;11853;48.080;11.960;2024-01-11T09:28:07;95680.44;;;-0.91;82.57
23363;BME280;11853;48.080;11.960;2024-01-11T09:30:33;95699.50;;;-0.90;82.33
23363;BME280;11853;48.080;11.960;2024-01-11T09:32:59;95703.75;;;-0.87;81.77
23363;BME280;11853;48.080;11.960;2024-01-11T09:35:25;95697.44;;;-0.82;82.12
23363;BME280;11853;48.080;11.960;2024-01-11T09:37:51;95693.91;;;-0.81;81.27
23363;BME280;11853;48.080;11.960;2024-01-11T09:40:18;95690.53;;;-0.83;81.66
23363;BME280;11853;48.080;11.960;2024-01-11T09:42:44;95678.28;;;-0.81;81.36
23363;BME280;11853;48.080;11.960;2024-01-11T09:45:13;95679.06;;;-0.79;80.93
23363;BME280;11853;48.080;11.960;2024-01-11T09:47:41;95679.91;;;-0.78;80.75
23363;BME280;11853;48.080;11.960;2024-01-11T09:50:08;95681.41;;;-0.73;80.52
23363;BME280;11853;48.080;11.960;2024-01-11T09:52:34;95686.50;;;-0.70;80.54
23363;BME280;11853;48.080;11.960;2024-01-11T09:55:00;95686.50;;;-0.70;80.22
23363;BME280;11853;48.080;11.960;2024-01-11T09:57:30;95684.81;;;-0.71;80.56
23363;BME280;11853;48.080;11.960;2024-01-11T09:59:58;95665.66;;;-0.70;80.64
23363;BME280;11853;48.080;11.960;2024-01-11T10:02:24;95662.16;;;-0.69;80.56
23363;BME280;11853;48.080;11.960;2024-01-11T10:04:52;95663.84;;;-0.68;80.26
23363;BME280;11853;48.080;11.960;2024-01-11T10:07:22;95662.88;;;-0.65;80.57
23363;BME280;11853;48.080;11.960;2024-01-11T10:09:48;95654.13;;;-0.64;80.90
23363;BME280;11853;48.080;11.960;2024-01-11T10:12:15;95666.13;;;-0.60;80.93
23363;BME280;11853;48.080;11.960;2024-01-11T10:14:40;95656.47;;;-0.58;81.19
23363;BME280;11853;48.080;11.960;2024-01-11T10:17:06;95655.63;;;-0.58;81.01
23363;BME280;11853;48.080;11.960;2024-01-11T10:19:32;95652.75;;;-0.52;81.50
23363;BME280;11853;48.080;11.960;2024-01-11T10:21:58;95665.59;;;-0.48;80.87
23363;BME280;11853;48.080;11.960;2024-01-11T10:24:26;95652.50;;;-0.46;80.79
23363;BME280;11853;48.080;11.960;2024-01-11T10:27:01;95637.78;;;-0.47;80.88
23363;BME280;11853;48.080;11.960;2024-01-11T10:29:33;95642.06;;;-0.46;80.69
23363;BME280;11853;48.080;11.960;2024-01-11T10:32:03;95642.72;;;-0.41;81.57
23363;BME280;11853;48.080;11.960;2024-01-11T10:34:28;95652.25;;;-0.40;81.55
23363;BME280;11853;48.080;11.960;2024-01-11T10:36:54;95650.53;;;-0.41;81.37
23363;BME280;11853;48.080;11.960;2024-01-11T10:39:26;95643.44;;;-0.37;81.48
23363;BME280;11853;48.080;11.960;2024-01-11T10:42:05;95632.03;;;-0.35;81.66
23363;BME280;11853;48.080;11.960;2024-01-11T10:44:34;95627.69;;;-0.34;81.22
23363;BME280;11853;48.080;11.960;2024-01-11T10:47:03;95621.31;;;-0.29;81.37
23363;BME280;11853;48.080;11.960;2024-01-11T10:49:33;95615.22;;;-0.28;81.58
23363;BME280;11853;48.080;11.960;2024-01-11T10:52:05;95613.31;;;-0.24;81.87
23363;BME280;11853;48.080;11.960;2024-01-11T10:54:34;95621.84;;;-0.20;82.04
23363;BME280;11853;48.080;11.960;2024-01-11T10:57:00;95643.66;;;-0.23;81.77
23363;BME280;11853;48.080;11.960;2024-01-11T10:59:28;95641.78;;;-0.19;81.76
23363;BME280;11853;48.080;11.960;2024-01-11T11:01:57;95651.38;;;-0.20;81.63
23363;BME280;11853;48.080;11.960;2024-01-11T11:04:25;95644.53;;;-0.22;82.34
23363;BME280;11853;48.080;11.960;2024-01-11T11:06:51;95629.88;;;-0.25;81.41
23363;BME280;11853;48.080;11.960;2024-01-11T11:09:20;95628.75;;;-0.19;81.40
23363;BME280;11853;48.080;11.960;2024-01-11T11:11:48;95623.41;;;-0.16;81.25
23363;BME280;11853;48.080;11.960;2024-01-11T11:14:15;95617.25;;;-0.15;81.25
23363;BME280;11853;48.080;11.960;2024-01-11T11:16:41;95612.97;;;-0.16;80.74
23363;BME280;11853;48.080;11.960;2024-01-11T11:19:08;95626.78;;;-0.14;80.80
23363;BME280;11853;48.080;11.960;2024-01-11T11:21:44;95618.94;;;-0.14;81.08
23363;BME280;11853;48.080;11.960;2024-01-11T11:24:11;95617.91;;;-0.10;80.90
23363;BME280;11853;48.080;11.960;2024-01-11T11:26:36;95628.19;;;-0.07;80.88
23363;BME280;11853;48.080;11.960;2024-01-11T11:29:06;95620.38;;;-0.07;80.59
23363;BME280;11853;48.080;11.960;2024-01-11T11:31:45;95626.25;;;-0.02;80.16
23363;BME280;11853;48.080;11.960;2024-01-11T11:34:13;95638.22;;;0.02;80.12
23363;BME280;11853;48.080;11.960;2024-01-11T11:36:40;95645.13;;;0.03;79.98
23363;BME280;11853;48.080;11.960;2024-01-11T11:39:13;95613.69;;;0.06;80.13
23363;BME280;11853;48.080;11.960;2024-01-11T11:41:39;95612.81;;;0.06;80.05
23363;BME280;11853;48.080;11.960;2024-01-11T11:44:07;95608.09;;;0.14;80.41
23363;BME280;11853;48.080;11.960;2024-01-11T11:46:37;95618.34;;;0.18;80.29
23363;BME280;11853;48.080;11.960;2024-01-11T11:49:03;95617.41;;;0.19;80.07
23363;BME280;11853;48.080;11.960;2024-01-11T11:51:29;95612.97;;;0.21;79.57
23363;BME280;11853;48.080;11.960;2024-01-11T11:53:54;95612.84;;;0.25;79.75
23363;BME280;11853;48.080;11.960;2024-01-11T11:56:22;95617.22;;;0.24;79.41
23363;BME280;11853;48.080;11.960;2024-01-11T11:58:48;95620.38;;;0.31;79.21
23363;BME280;11853;48.080;11.960;2024-01-11T12:01:20;95615.94;;;0.33;79.37
23363;BME280;11853;48.080;11.960;2024-01-11T12:03:46;95610.56;;;0.36;79.16
23363;BME280;11853;48.080;11.960;2024-01-11T12:06:15;95618.34;;;0.37;79.79
23363;BME280;11853;48.080;11.960;2024-01-11T12:08:42;95617.56;;;0.35;79.10
23363;BME280;11853;48.080;11.960;2024-01-11T12:11:08;95623.63;;;0.36;79.67
23363;BME280;11853;48.080;11.960;2024-01-11T12:13:34;95632.22;;;0.38;79.26
23363;BME280;11853;48.080;11.960;2024-01-11T12:16:01;95626.22;;;0.36;79.59
23363;BME280;11853;48.080;11.960;2024-01-11T12:18:27;95626.22;;;0.36;79.26
23363;BME280;11853;48.080;11.960;2024-01-11T12:20:52;95627.00;;;0.38;78.92
23363;BME280;11853;48.080;11.960;2024-01-11T12:23:19;95615.78;;;0.36;78.96
23363;BME280;11853;48.080;11.960;2024-01-11T12:25:45;95602.91;;;0.33;79.23
23363;BME280;11853;48.080;11.960;2024-01-11T12:28:11;95611.66;;;0.32;79.08
23363;BME280;11853;48.080;11.960;2024-01-11T12:30:37;95607.19;;;0.34;78.92
23363;BME280;11853;48.080;11.960;2024-01-11T12:33:04;95593.25;;;0.35;79.00
23363;BME280;11853;48.080;11.960;2024-01-11T12:35:31;95604.66;;;0.32;78.98
23363;BME280;11853;48.080;11.960;2024-01-11T12:38:03;95605.34;;;0.36;78.93
23363;BME280;11853;48.080;11.960;2024-01-11T12:40:35;95603.72;;;0.33;79.59
23363;BME280;11853;48.080;11.960;2024-01-11T12:43:06;95605.41;;;0.34;79.11
23363;BME280;11853;48.080;11.960;2024-01-11T12:45:34;95624.69;;;0.32;79.37
23363;BME280;11853;48.080;11.960;2024-01-11T12:48:00;95638.50;;;0.34;79.37